Jacques Jacob — ZDKG7 — position and weather

sailwx.info

Track history (hours):
 
Tides and Currents Weather Stations Pressure Air Temp Water Temp Dewpoint Dewpoint Depression Visibility Wind Speed Wind Dir Waves Ship Positions

Jacques Jacob

Last reported at 2015-Jan-15 15:18 UTC. Time now 2015-Jan-30 20:07 UTC.
Position N 36°39' W 000°37'.
Warning: this ship's position is 15 days out of date.

Length 228 m; draft 11.9 m.

Type: Tanker. MMSI: 236612000.

Date/timePositionNaut miles runAvg speedWind from/ knotsBaromVisibWave heightAir tempDewpointWater temp
2015-Jan-15 15:18N 36°39' W 000°37'3211.4
2015-Jan-15 12:28N 36°45' E 000°02'1011.1
2015-Jan-15 11:33N 36°47' E 000°15'6811.0
2015-Jan-15 05:22N 36°59' E 001°38'8 9.8
2015-Jan-15 04:31N 37°01' E 001°49'4510.8
2015-Jan-15 00:22N 37°09' E 002°44'8 9.8
2015-Jan-14 23:33N 37°10' E 002°53'1111.0
2015-Jan-14 22:34N 37°12' E 003°07'1111.1
2015-Jan-14 21:34N 37°15' E 003°21'1510.9
2015-Jan-14 20:09N 37°17' E 003°39'710.7
2015-Jan-14 19:30N 37°18' E 003°48'9610.6
2015-Jan-14 10:28N 37°16' E 005°49'910.2
2015-Jan-14 09:33N 37°15' E 006°01'1310.1
2015-Jan-14 08:17N 37°14' E 006°17'38 1.7
2015-Jan-13 10:26N 36°55' E 006°57'17 5.6
2015-Jan-13 07:29N 37°10' E 006°49'  
2015-Jan-10 22:33N 37°12' E 006°56'1 0.9
2015-Jan-10 21:26N 37°12' E 006°54'3 0.8
2015-Jan-10 17:33N 37°09' E 006°55'  
Track history (hours):
 
Tides and Currents Weather Stations Pressure Air Temp Water Temp Dewpoint Dewpoint Depression Visibility Wind Speed Wind Dir Waves Ship Positions

Jacques Jacob

Last reported at 2015-Jan-15 15:18 UTC. Time now 2015-Jan-30 20:07 UTC.
Position N 36°39' W 000°37'.
Warning: this ship's position is 15 days out of date.

Length 228 m; draft 11.9 m.

Type: Tanker. MMSI: 236612000.

Date/timePositionNaut miles runAvg speedWind from/ knotsBaromVisibWave heightAir tempDewpointWater temp
2015-Jan-15 15:18N 36°39' W 000°37'3211.4
2015-Jan-15 12:28N 36°45' E 000°02'1011.1
2015-Jan-15 11:33N 36°47' E 000°15'6811.0
2015-Jan-15 05:22N 36°59' E 001°38'8 9.8
2015-Jan-15 04:31N 37°01' E 001°49'4510.8
2015-Jan-15 00:22N 37°09' E 002°44'8 9.8
2015-Jan-14 23:33N 37°10' E 002°53'1111.0
2015-Jan-14 22:34N 37°12' E 003°07'1111.1
2015-Jan-14 21:34N 37°15' E 003°21'1510.9
2015-Jan-14 20:09N 37°17' E 003°39'710.7
2015-Jan-14 19:30N 37°18' E 003°48'9610.6
2015-Jan-14 10:28N 37°16' E 005°49'910.2
2015-Jan-14 09:33N 37°15' E 006°01'1310.1
2015-Jan-14 08:17N 37°14' E 006°17'38 1.7
2015-Jan-13 10:26N 36°55' E 006°57'17 5.6
2015-Jan-13 07:29N 37°10' E 006°49'  
2015-Jan-10 22:33N 37°12' E 006°56'1 0.9
2015-Jan-10 21:26N 37°12' E 006°54'3 0.8
2015-Jan-10 17:33N 37°09' E 006°55'  

Dump ship's entire track history